sensor_id;sensor_type;location;lat;lon;timestamp;pressure;altitude;pressure_sealevel;temperature;humidity
57056;BME280;42945;51.718;5.324;2023-12-20T00:00:42;101623.94;;;5.12;100.00
57056;BME280;42945;51.718;5.324;2023-12-20T00:06:33;101544.72;;;4.48;100.00
57056;BME280;42945;51.718;5.324;2023-12-20T00:12:20;101519.50;;;4.41;100.00
57056;BME280;42945;51.718;5.324;2023-12-20T00:18:08;101545.75;;;4.41;100.00
57056;BME280;42945;51.718;5.324;2023-12-20T00:23:56;101477.56;;;4.38;100.00
57056;BME280;42945;51.718;5.324;2023-12-20T00:29:44;101528.88;;;4.53;100.00
57056;BME280;42945;51.718;5.324;2023-12-20T00:35:35;101446.88;;;4.40;100.00
57056;BME280;42945;51.718;5.324;2023-12-20T00:41:24;101367.78;;;3.74;100.00
57056;BME280;42945;51.718;5.324;2023-12-20T00:47:11;101480.53;;;4.62;100.00
57056;BME280;42945;51.718;5.324;2023-12-20T00:52:59;101491.09;;;4.59;100.00
57056;BME280;42945;51.718;5.324;2023-12-20T00:58:46;101456.09;;;4.18;100.00
57056;BME280;42945;51.718;5.324;2023-12-20T01:04:35;101462.34;;;4.12;100.00
57056;BME280;42945;51.718;5.324;2023-12-20T01:10:22;101492.84;;;4.18;100.00
57056;BME280;42945;51.718;5.324;2023-12-20T01:16:11;101570.47;;;4.31;100.00
57056;BME280;42945;51.718;5.324;2023-12-20T01:21:59;101452.63;;;4.17;100.00
57056;BME280;42945;51.718;5.324;2023-12-20T01:27:46;101509.47;;;4.17;100.00
57056;BME280;42945;51.718;5.324;2023-12-20T01:33:34;101525.47;;;4.04;100.00
57056;BME280;42945;51.718;5.324;2023-12-20T01:39:23;101370.72;;;3.12;100.00
57056;BME280;42945;51.718;5.324;2023-12-20T01:45:10;101469.16;;;3.77;100.00
57056;BME280;42945;51.718;5.324;2023-12-20T01:54:34;101506.88;;;3.71;100.00
57056;BME280;42945;51.718;5.324;2023-12-20T02:00:23;101462.41;;;3.64;100.00
57056;BME280;42945;51.718;5.324;2023-12-20T02:06:16;101460.31;;;3.34;100.00
57056;BME280;42945;51.718;5.324;2023-12-20T02:12:05;101612.63;;;4.25;100.00
57056;BME280;42945;51.718;5.324;2023-12-20T02:17:52;101515.91;;;3.55;100.00
57056;BME280;42945;51.718;5.324;2023-12-20T02:23:41;101473.00;;;3.59;100.00
57056;BME280;42945;51.718;5.324;2023-12-20T02:29:29;101480.78;;;3.64;100.00
57056;BME280;42945;51.718;5.324;2023-12-20T02:35:17;101507.25;;;3.50;100.00
57056;BME280;42945;51.718;5.324;2023-12-20T02:41:05;101466.91;;;3.57;100.00
57056;BME280;42945;51.718;5.324;2023-12-20T02:46:52;101506.16;;;3.62;100.00
57056;BME280;42945;51.718;5.324;2023-12-20T02:56:28;101508.59;;;3.72;100.00
57056;BME280;42945;51.718;5.324;2023-12-20T03:02:16;101358.59;;;3.07;100.00
57056;BME280;42945;51.718;5.324;2023-12-20T03:08:04;101438.56;;;3.76;100.00
57056;BME280;42945;51.718;5.324;2023-12-20T03:13:53;101460.59;;;3.67;100.00
57056;BME280;42945;51.718;5.324;2023-12-20T03:19:40;101430.88;;;3.67;100.00
57056;BME280;42945;51.718;5.324;2023-12-20T03:25:27;101326.19;;;3.11;100.00
57056;BME280;42945;51.718;5.324;2023-12-20T03:31:15;101498.59;;;3.91;100.00
57056;BME280;42945;51.718;5.324;2023-12-20T03:37:04;101463.50;;;3.97;100.00
57056;BME280;42945;51.718;5.324;2023-12-20T03:42:54;101514.81;;;4.13;100.00
57056;BME280;42945;51.718;5.324;2023-12-20T03:48:42;101485.16;;;4.08;100.00
57056;BME280;42945;51.718;5.324;2023-12-20T03:58:05;101465.91;;;4.09;100.00
57056;BME280;42945;51.718;5.324;2023-12-20T04:03:53;101462.34;;;4.10;100.00
57056;BME280;42945;51.718;5.324;2023-12-20T04:09:41;101449.94;;;4.19;100.00
57056;BME280;42945;51.718;5.324;2023-12-20T04:15:28;101471.81;;;4.19;100.00
57056;BME280;42945;51.718;5.324;2023-12-20T04:21:17;101443.94;;;4.13;100.00
57056;BME280;42945;51.718;5.324;2023-12-20T04:27:06;101442.16;;;4.14;100.00
57056;BME280;42945;51.718;5.324;2023-12-20T04:32:54;101432.88;;;4.77;100.00
57056;BME280;42945;51.718;5.324;2023-12-20T04:38:43;101446.50;;;4.93;100.00
57056;BME280;42945;51.718;5.324;2023-12-20T04:44:37;101506.88;;;4.96;100.00
57056;BME280;42945;51.718;5.324;2023-12-20T04:50:26;101501.38;;;5.07;100.00
57056;BME280;42945;51.718;5.324;2023-12-20T04:59:48;101458.16;;;5.17;100.00
57056;BME280;42945;51.718;5.324;2023-12-20T05:05:36;101486.66;;;5.34;100.00
57056;BME280;42945;51.718;5.324;2023-12-20T05:11:23;101406.50;;;5.16;100.00
57056;BME280;42945;51.718;5.324;2023-12-20T05:17:10;101364.31;;;4.50;100.00
57056;BME280;42945;51.718;5.324;2023-12-20T05:22:59;101383.72;;;5.15;100.00
57056;BME280;42945;51.718;5.324;2023-12-20T05:28:48;101376.31;;;4.97;100.00
57056;BME280;42945;51.718;5.324;2023-12-20T05:34:38;101347.06;;;4.74;100.00
57056;BME280;42945;51.718;5.324;2023-12-20T05:40:26;101525.16;;;5.38;100.00
57056;BME280;42945;51.718;5.324;2023-12-20T05:46:16;101392.84;;;4.66;100.00
57056;BME280;42945;51.718;5.324;2023-12-20T05:52:03;101401.66;;;4.99;100.00
57056;BME280;42945;51.718;5.324;2023-12-20T06:01:39;101394.19;;;4.82;100.00
57056;BME280;42945;51.718;5.324;2023-12-20T06:07:27;101397.41;;;4.93;100.00
57056;BME280;42945;51.718;5.324;2023-12-20T06:13:14;101406.78;;;4.69;100.00
57056;BME280;42945;51.718;5.324;2023-12-20T06:19:03;101413.72;;;4.72;100.00
57056;BME280;42945;51.718;5.324;2023-12-20T06:24:51;101395.66;;;4.58;100.00
57056;BME280;42945;51.718;5.324;2023-12-20T06:30:38;101437.50;;;4.67;100.00
57056;BME280;42945;51.718;5.324;2023-12-20T06:36:27;101501.63;;;5.32;100.00
57056;BME280;42945;51.718;5.324;2023-12-20T06:42:16;101396.34;;;4.66;100.00
57056;BME280;42945;51.718;5.324;2023-12-20T06:48:05;101430.91;;;4.85;100.00
57056;BME280;42945;51.718;5.324;2023-12-20T06:53:54;101390.56;;;4.86;100.00
57056;BME280;42945;51.718;5.324;2023-12-20T06:59:42;101432.78;;;4.80;100.00
57056;BME280;42945;51.718;5.324;2023-12-20T07:05:29;101386.09;;;4.91;100.00
57056;BME280;42945;51.718;5.324;2023-12-20T07:11:18;101286.22;;;4.23;100.00
57056;BME280;42945;51.718;5.324;2023-12-20T07:17:07;101281.81;;;4.23;100.00
57056;BME280;42945;51.718;5.324;2023-12-20T07:22:59;101402.91;;;4.84;100.00
57056;BME280;42945;51.718;5.324;2023-12-20T07:28:46;101373.31;;;4.76;100.00
57056;BME280;42945;51.718;5.324;2023-12-20T07:34:39;101378.91;;;4.64;100.00
57056;BME280;42945;51.718;5.324;2023-12-20T07:40:27;101409.13;;;4.80;100.00
57056;BME280;42945;51.718;5.324;2023-12-20T07:46:14;101466.28;;;4.72;100.00
57056;BME280;42945;51.718;5.324;2023-12-20T07:52:02;101419.84;;;4.72;100.00
57056;BME280;42945;51.718;5.324;2023-12-20T07:57:49;101409.47;;;4.66;100.00
57056;BME280;42945;51.718;5.324;2023-12-20T08:03:38;101421.19;;;4.51;100.00
57056;BME280;42945;51.718;5.324;2023-12-20T08:09:27;101458.88;;;4.88;100.00
57056;BME280;42945;51.718;5.324;2023-12-20T08:15:14;101377.56;;;4.82;100.00
57056;BME280;42945;51.718;5.324;2023-12-20T08:21:03;101396.09;;;4.77;100.00
57056;BME280;42945;51.718;5.324;2023-12-20T08:26:51;101426.34;;;4.93;100.00
57056;BME280;42945;51.718;5.324;2023-12-20T08:32:40;101384.63;;;4.80;100.00
57056;BME280;42945;51.718;5.324;2023-12-20T08:38:27;101441.03;;;5.02;100.00
57056;BME280;42945;51.718;5.324;2023-12-20T08:44:16;101435.81;;;5.01;100.00
57056;BME280;42945;51.718;5.324;2023-12-20T08:56:48;101411.31;;;4.99;100.00
57056;BME280;42945;51.718;5.324;2023-12-20T09:06:37;101393.91;;;4.95;100.00
57056;BME280;42945;51.718;5.324;2023-12-20T09:12:26;101411.31;;;4.99;100.00
57056;BME280;42945;51.718;5.324;2023-12-20T09:18:14;101406.69;;;5.08;100.00
57056;BME280;42945;51.718;5.324;2023-12-20T09:24:02;101434.44;;;5.20;100.00
57056;BME280;42945;51.718;5.324;2023-12-20T09:29:51;101378.03;;;4.98;100.00
57056;BME280;42945;51.718;5.324;2023-12-20T09:35:42;101374.91;;;5.18;100.00
57056;BME280;42945;51.718;5.324;2023-12-20T09:41:32;101521.31;;;5.84;100.00
57056;BME280;42945;51.718;5.324;2023-12-20T09:47:25;101384.81;;;5.08;100.00
57056;BME280;42945;51.718;5.324;2023-12-20T09:53:15;101359.97;;;5.18;100.00
57056;BME280;42945;51.718;5.324;2023-12-20T09:59:04;101520.97;;;5.98;100.00
57056;BME280;42945;51.718;5.324;2023-12-20T10:08:47;101263.81;;;4.77;100.00
57056;BME280;42945;51.718;5.324;2023-12-20T10:14:35;101355.97;;;5.36;100.00
57056;BME280;42945;51.718;5.324;2023-12-20T10:20:23;101369.66;;;5.49;100.00
57056;BME280;42945;51.718;5.324;2023-12-20T10:26:19;101516.66;;;6.27;100.00
57056;BME280;42945;51.718;5.324;2023-12-20T10:38:11;101359.53;;;5.66;100.00
57056;BME280;42945;51.718;5.324;2023-12-20T10:44:04;101399.94;;;5.95;100.00
57056;BME280;42945;51.718;5.324;2023-12-20T10:49:54;101458.72;;;6.55;100.00
57056;BME280;42945;51.718;5.324;2023-12-20T10:55:44;101227.59;;;5.19;100.00
57056;BME280;42945;51.718;5.324;2023-12-20T11:01:32;101348.38;;;5.88;100.00
57056;BME280;42945;51.718;5.324;2023-12-20T11:11:34;101330.63;;;5.93;100.00
57056;BME280;42945;51.718;5.324;2023-12-20T11:17:23;101350.44;;;6.06;100.00
57056;BME280;42945;51.718;5.324;2023-12-20T11:23:13;101357.22;;;6.15;100.00
57056;BME280;42945;51.718;5.324;2023-12-20T11:29:34;101318.78;;;6.09;100.00
57056;BME280;42945;51.718;5.324;2023-12-20T11:35:23;101276.59;;;6.11;100.00
57056;BME280;42945;51.718;5.324;2023-12-20T11:41:12;101351.84;;;6.18;100.00
57056;BME280;42945;51.718;5.324;2023-12-20T11:46:59;101297.59;;;6.13;100.00
57056;BME280;42945;51.718;5.324;2023-12-20T11:52:49;101358.13;;;6.42;100.00
57056;BME280;42945;51.718;5.324;2023-12-20T11:58:37;101283.44;;;6.43;100.00
57056;BME280;42945;51.718;5.324;2023-12-20T12:04:25;101161.75;;;5.79;100.00
57056;BME280;42945;51.718;5.324;2023-12-20T12:14:13;101238.75;;;6.40;100.00
57056;BME280;42945;51.718;5.324;2023-12-20T12:20:04;101411.31;;;7.34;100.00
57056;BME280;42945;51.718;5.324;2023-12-20T12:25:52;101162.91;;;5.98;100.00
57056;BME280;42945;51.718;5.324;2023-12-20T12:31:39;101270.13;;;6.73;100.00
57056;BME280;42945;51.718;5.324;2023-12-20T12:37:27;101306.34;;;6.93;100.00
57056;BME280;42945;51.718;5.324;2023-12-20T12:43:14;101239.91;;;6.83;100.00
57056;BME280;42945;51.718;5.324;2023-12-20T12:49:03;101285.06;;;6.98;100.00
57056;BME280;42945;51.718;5.324;2023-12-20T12:54:52;101132.53;;;6.15;100.00
57056;BME280;42945;51.718;5.324;2023-12-20T13:00:40;101299.56;;;7.11;100.00
57056;BME280;42945;51.718;5.324;2023-12-20T13:06:28;101246.28;;;7.01;100.00
57056;BME280;42945;51.718;5.324;2023-12-20T13:16:11;101210.81;;;7.10;100.00
57056;BME280;42945;51.718;5.324;2023-12-20T13:22:00;101154.56;;;7.09;100.00
57056;BME280;42945;51.718;5.324;2023-12-20T13:27:47;101204.25;;;7.20;100.00
57056;BME280;42945;51.718;5.324;2023-12-20T13:33:35;101141.66;;;7.25;100.00
57056;BME280;42945;51.718;5.324;2023-12-20T13:39:25;101177.59;;;7.28;100.00
57056;BME280;42945;51.718;5.324;2023-12-20T13:45:14;101160.56;;;7.37;100.00
57056;BME280;42945;51.718;5.324;2023-12-20T13:51:02;101149.56;;;7.47;100.00
57056;BME280;42945;51.718;5.324;2023-12-20T13:56:50;101138.41;;;7.41;100.00
57056;BME280;42945;51.718;5.324;2023-12-20T14:02:38;101126.63;;;7.27;100.00
57056;BME280;42945;51.718;5.324;2023-12-20T14:08:25;101341.25;;;8.63;100.00
57056;BME280;42945;51.718;5.324;2023-12-20T14:17:50;101001.75;;;6.61;100.00
57056;BME280;42945;51.718;5.324;2023-12-20T14:23:39;101168.13;;;7.22;100.00
57056;BME280;42945;51.718;5.324;2023-12-20T14:29:27;101196.53;;;7.16;100.00
57056;BME280;42945;51.718;5.324;2023-12-20T14:35:15;101095.06;;;7.02;100.00
57056;BME280;42945;51.718;5.324;2023-12-20T14:41:04;101258.72;;;7.68;100.00
57056;BME280;42945;51.718;5.324;2023-12-20T14:46:53;101156.81;;;6.97;100.00
57056;BME280;42945;51.718;5.324;2023-12-20T14:52:40;101167.53;;;6.92;100.00
57056;BME280;42945;51.718;5.324;2023-12-20T14:58:28;101184.06;;;6.96;100.00
57056;BME280;42945;51.718;5.324;2023-12-20T15:04:17;101175.97;;;7.02;100.00
57056;BME280;42945;51.718;5.324;2023-12-20T15:10:05;101125.69;;;6.83;100.00
57056;BME280;42945;51.718;5.324;2023-12-20T15:19:41;101033.03;;;6.23;100.00
57056;BME280;42945;51.718;5.324;2023-12-20T15:25:37;101202.19;;;6.81;100.00
57056;BME280;42945;51.718;5.324;2023-12-20T15:31:24;101103.38;;;6.92;100.00
57056;BME280;42945;51.718;5.324;2023-12-20T15:37:13;101177.44;;;6.85;100.00
57056;BME280;42945;51.718;5.324;2023-12-20T15:43:01;101180.72;;;6.92;100.00
57056;BME280;42945;51.718;5.324;2023-12-20T15:48:49;101170.66;;;6.78;100.00
57056;BME280;42945;51.718;5.324;2023-12-20T15:54:39;101152.91;;;6.83;100.00
57056;BME280;42945;51.718;5.324;2023-12-20T16:00:29;101206.34;;;6.88;100.00
57056;BME280;42945;51.718;5.324;2023-12-20T16:06:19;101101.84;;;6.62;100.00
57056;BME280;42945;51.718;5.324;2023-12-20T16:12:10;101144.66;;;6.69;100.00
57056;BME280;42945;51.718;5.324;2023-12-20T16:21:53;101074.69;;;6.60;100.00
57056;BME280;42945;51.718;5.324;2023-12-20T16:27:42;101137.53;;;6.71;100.00
57056;BME280;42945;51.718;5.324;2023-12-20T16:33:30;101149.78;;;6.72;100.00
57056;BME280;42945;51.718;5.324;2023-12-20T16:39:20;101117.63;;;6.62;100.00
57056;BME280;42945;51.718;5.324;2023-12-20T16:45:08;101108.03;;;6.61;100.00
57056;BME280;42945;51.718;5.324;2023-12-20T16:50:57;101128.91;;;7.37;100.00
57056;BME280;42945;51.718;5.324;2023-12-20T16:56:44;101113.06;;;6.67;100.00
57056;BME280;42945;51.718;5.324;2023-12-20T17:02:32;101081.78;;;6.82;100.00
57056;BME280;42945;51.718;5.324;2023-12-20T17:08:21;101100.84;;;6.65;100.00
57056;BME280;42945;51.718;5.324;2023-12-20T17:14:10;100689.03;;;4.60;100.00
57056;BME280;42945;51.718;5.324;2023-12-20T17:23:53;101041.34;;;6.59;100.00
57056;BME280;42945;51.718;5.324;2023-12-20T17:29:41;101046.63;;;6.59;100.00
57056;BME280;42945;51.718;5.324;2023-12-20T17:35:28;100969.69;;;6.02;100.00
57056;BME280;42945;51.718;5.324;2023-12-20T17:41:17;101023.63;;;6.63;100.00
57056;BME280;42945;51.718;5.324;2023-12-20T17:47:04;101035.91;;;6.64;100.00
57056;BME280;42945;51.718;5.324;2023-12-20T17:52:53;100893.22;;;5.82;100.00
57056;BME280;42945;51.718;5.324;2023-12-20T17:58:47;101021.78;;;6.65;100.00
57056;BME280;42945;51.718;5.324;2023-12-20T18:04:41;100978.66;;;6.67;100.00
57056;BME280;42945;51.718;5.324;2023-12-20T18:10:30;100945.69;;;6.79;100.00
57056;BME280;42945;51.718;5.324;2023-12-20T18:16:17;101007.22;;;6.78;100.00
57056;BME280;42945;51.718;5.324;2023-12-20T18:26:01;100986.75;;;6.85;100.00
57056;BME280;42945;51.718;5.324;2023-12-20T18:38:33;100958.78;;;7.03;100.00
57056;BME280;42945;51.718;5.324;2023-12-20T18:44:22;100967.63;;;7.02;100.00
57056;BME280;42945;51.718;5.324;2023-12-20T18:50:10;100817.38;;;6.37;100.00
57056;BME280;42945;51.718;5.324;2023-12-20T18:56:02;100932.03;;;7.12;100.00
57056;BME280;42945;51.718;5.324;2023-12-20T19:01:51;100957.19;;;6.99;100.00
57056;BME280;42945;51.718;5.324;2023-12-20T19:07:40;100920.16;;;7.02;100.00
57056;BME280;42945;51.718;5.324;2023-12-20T19:13:29;100985.41;;;7.80;100.00
57056;BME280;42945;51.718;5.324;2023-12-20T19:19:20;100886.16;;;7.16;100.00
57056;BME280;42945;51.718;5.324;2023-12-20T19:29:09;100883.50;;;7.16;100.00
57056;BME280;42945;51.718;5.324;2023-12-20T19:34:58;100877.84;;;7.25;100.00
57056;BME280;42945;51.718;5.324;2023-12-20T19:40:45;100884.28;;;7.18;100.00
57056;BME280;42945;51.718;5.324;2023-12-20T19:46:34;100878.81;;;7.23;100.00
57056;BME280;42945;51.718;5.324;2023-12-20T19:52:23;100855.97;;;7.23;100.00
57056;BME280;42945;51.718;5.324;2023-12-20T19:58:11;100826.16;;;7.21;100.00
57056;BME280;42945;51.718;5.324;2023-12-20T20:04:00;100862.72;;;7.49;100.00
57056;BME280;42945;51.718;5.324;2023-12-20T20:09:49;100801.47;;;7.22;100.00
57056;BME280;42945;51.718;5.324;2023-12-20T20:15:37;100700.09;;;6.69;100.00
57056;BME280;42945;51.718;5.324;2023-12-20T20:21:26;100918.19;;;7.48;100.00
57056;BME280;42945;51.718;5.324;2023-12-20T20:31:07;100744.84;;;6.71;100.00
57056;BME280;42945;51.718;5.324;2023-12-20T20:36:56;100700.38;;;6.63;100.00
57056;BME280;42945;51.718;5.324;2023-12-20T20:42:44;100841.31;;;7.37;100.00
57056;BME280;42945;51.718;5.324;2023-12-20T20:48:35;100841.75;;;7.46;100.00
57056;BME280;42945;51.718;5.324;2023-12-20T20:54:25;100868.31;;;7.42;100.00
57056;BME280;42945;51.718;5.324;2023-12-20T21:00:15;100786.09;;;7.32;100.00
57056;BME280;42945;51.718;5.324;2023-12-20T21:06:04;100799.97;;;7.56;100.00
57056;BME280;42945;51.718;5.324;2023-12-20T21:11:52;100788.88;;;7.48;100.00
57056;BME280;42945;51.718;5.324;2023-12-20T21:17:42;100812.47;;;7.32;100.00
57056;BME280;42945;51.718;5.324;2023-12-20T21:23:32;100809.38;;;7.22;100.00
57056;BME280;42945;51.718;5.324;2023-12-20T21:33:15;100811.16;;;7.22;100.00
57056;BME280;42945;51.718;5.324;2023-12-20T21:39:04;100799.66;;;7.04;100.00
57056;BME280;42945;51.718;5.324;2023-12-20T21:44:53;100546.84;;;5.78;100.00
57056;BME280;42945;51.718;5.324;2023-12-20T21:50:40;100798.09;;;7.39;100.00
57056;BME280;42945;51.718;5.324;2023-12-20T21:56:29;100787.09;;;7.29;100.00
57056;BME280;42945;51.718;5.324;2023-12-20T22:02:17;100888.28;;;8.45;100.00
57056;BME280;42945;51.718;5.324;2023-12-20T22:08:06;100755.09;;;7.37;100.00
57056;BME280;42945;51.718;5.324;2023-12-20T22:13:54;100690.22;;;6.94;100.00
57056;BME280;42945;51.718;5.324;2023-12-20T22:19:42;100756.72;;;7.40;100.00
57056;BME280;42945;51.718;5.324;2023-12-20T22:25:30;100760.31;;;7.39;100.00
57056;BME280;42945;51.718;5.324;2023-12-20T22:35:11;100761.88;;;7.43;100.00
57056;BME280;42945;51.718;5.324;2023-12-20T22:41:00;100729.56;;;7.38;100.00
57056;BME280;42945;51.718;5.324;2023-12-20T22:46:48;100781.31;;;7.40;100.00
57056;BME280;42945;51.718;5.324;2023-12-20T22:52:36;100743.16;;;7.47;100.00
57056;BME280;42945;51.718;5.324;2023-12-20T22:58:25;100647.53;;;6.85;100.00
57056;BME280;42945;51.718;5.324;2023-12-20T23:04:14;100765.38;;;7.62;100.00
57056;BME280;42945;51.718;5.324;2023-12-20T23:10:03;100643.06;;;6.87;100.00
57056;BME280;42945;51.718;5.324;2023-12-20T23:15:51;100754.09;;;7.59;100.00
57056;BME280;42945;51.718;5.324;2023-12-20T23:21:39;100701.38;;;7.57;100.00
57056;BME280;42945;51.718;5.324;2023-12-20T23:27:28;100716.28;;;7.58;100.00
57056;BME280;42945;51.718;5.324;2023-12-20T23:33:17;100675.56;;;7.45;100.00
57056;BME280;42945;51.718;5.324;2023-12-20T23:39:06;100662.88;;;7.53;100.00
57056;BME280;42945;51.718;5.324;2023-12-20T23:44:53;100684.81;;;7.73;100.00
57056;BME280;42945;51.718;5.324;2023-12-20T23:50:41;100915.28;;;9.06;100.00
57056;BME280;42945;51.718;5.324;2023-12-20T23:56:29;100700.81;;;7.51;100.00
